Time;durP1;ratioP1;P1;durP2;ratioP2;P2;SDS_P1;SDS_P2;PMS_P1;PMS_P2;Temp;Humidity;BMP_temperature;BMP_pressure;BME280_temperature;BME280_humidity;BME280_pressure;Samples;Min_cycle;Max_cycle;Signal;HPM_P1;HPM_P2
2021/07/19 06:35:51;;;;;;;62.37;46.20;;;23.90;99.90;;;;;;6126052;22;2256436;-92
2021/07/19 06:38:26;;;;;;;153.30;120.03;;;24.00;99.90;;;;;;6225531;23;20739;-95
2021/07/19 06:40:52;;;;;;;16.00;13.83;;;24.00;99.90;;;;;;6222812;23;20286;-93
2021/07/19 06:43:17;;;;;;;13.37;11.53;;;24.10;99.90;;;;;;6220577;23;20877;-95
2021/07/19 06:45:47;;;;;;;13.40;11.60;;;24.10;99.90;;;;;;6219598;23;20606;-92
2021/07/19 06:48:41;;;;;;;12.50;11.30;;;24.10;99.90;;;;;;6219379;23;20192;-95
2021/07/19 06:51:07;;;;;;;12.43;11.13;;;24.20;99.90;;;;;;6214114;23;20433;-93
2021/07/19 06:53:33;;;;;;;11.93;10.60;;;24.20;99.90;;;;;;6213714;23;20397;-92
2021/07/19 06:55:59;;;;;;;12.50;11.40;;;24.20;99.90;;;;;;6211667;23;20389;-96
2021/07/19 06:58:25;;;;;;;10.97;9.97;;;24.20;99.90;;;;;;6213958;23;20179;-94
2021/07/19 07:00:51;;;;;;;14.13;11.17;;;24.20;99.90;;;;;;6209685;23;20436;-95
2021/07/19 07:03:19;;;;;;;11.47;10.37;;;24.20;99.90;;;;;;6207161;23;20163;-96
2021/07/19 07:05:45;;;;;;;12.13;10.87;;;24.30;99.90;;;;;;6211630;23;20168;-94
2021/07/19 07:08:11;;;;;;;12.10;10.90;;;24.30;99.90;;;;;;6209230;23;20406;-95
2021/07/19 07:10:37;;;;;;;12.97;11.70;;;24.30;99.90;;;;;;6207804;23;20253;-96
2021/07/19 07:13:08;;;;;;;12.70;11.30;;;24.30;99.90;;;;;;6206449;23;20272;-94
2021/07/19 07:15:37;;;;;;;12.83;11.53;;;24.30;99.90;;;;;;6210711;23;20164;-96
2021/07/19 07:18:05;;;;;;;12.70;11.50;;;24.30;99.90;;;;;;6217048;23;20413;-93
2021/07/19 07:20:31;;;;;;;13.93;12.50;;;24.30;99.90;;;;;;6219881;23;20452;-96
2021/07/19 07:22:57;;;;;;;17.90;12.10;;;24.40;99.90;;;;;;6219138;23;20426;-95
2021/07/19 07:25:24;;;;;;;13.10;11.70;;;24.40;99.90;;;;;;6215373;23;20465;-94
2021/07/19 07:27:53;;;;;;;13.87;12.57;;;24.40;99.90;;;;;;6206678;23;20461;-94
2021/07/19 07:30:20;;;;;;;13.87;12.47;;;24.40;99.90;;;;;;6181427;23;20430;-91
2021/07/19 07:32:48;;;;;;;14.80;12.90;;;24.40;99.90;;;;;;6207684;23;20438;-93
2021/07/19 07:35:14;;;;;;;16.00;13.73;;;24.40;99.90;;;;;;6207663;23;20825;-94
2021/07/19 07:37:41;;;;;;;14.33;12.83;;;24.40;99.90;;;;;;6203888;23;20444;-95
2021/07/19 07:40:12;;;;;;;12.63;11.33;;;24.40;99.90;;;;;;6205874;23;20440;-94
2021/07/19 07:42:38;;;;;;;15.43;13.77;;;24.40;99.90;;;;;;6204842;23;20434;-93
2021/07/19 07:45:06;;;;;;;15.37;13.77;;;24.40;99.90;;;;;;6204783;23;20378;-96
2021/07/19 07:47:47;;;;;;;14.63;12.97;;;24.40;99.90;;;;;;6209855;23;20423;-96
2021/07/19 07:50:13;;;;;;;20.03;13.87;;;24.40;99.90;;;;;;6205310;23;20383;-89
2021/07/19 07:52:42;;;;;;;16.10;14.50;;;24.40;99.90;;;;;;6212063;23;20425;-96
2021/07/19 07:55:09;;;;;;;17.37;14.40;;;24.40;99.90;;;;;;6212158;23;20458;-93
2021/07/19 07:57:35;;;;;;;15.20;13.63;;;24.40;99.90;;;;;;6207309;23;20970;-94
2021/07/19 08:00:01;;;;;;;15.20;13.60;;;24.40;99.90;;;;;;6204180;23;20469;-94
2021/07/19 08:02:27;;;;;;;17.40;15.33;;;24.50;99.90;;;;;;6205635;23;20193;-93
2021/07/19 08:04:55;;;;;;;17.07;14.57;;;24.50;99.90;;;;;;6201429;23;20985;-94
2021/07/19 08:07:21;;;;;;;18.90;16.23;;;24.50;99.90;;;;;;6207749;23;20185;-94
2021/07/19 08:09:47;;;;;;;20.37;17.37;;;24.50;99.90;;;;;;6203648;23;20428;-95
2021/07/19 08:12:12;;;;;;;17.87;16.00;;;24.50;99.90;;;;;;6206816;23;20410;-94
2021/07/19 08:14:41;;;;;;;22.50;16.50;;;24.50;99.90;;;;;;6204253;23;20255;-96
2021/07/19 08:17:07;;;;;;;19.37;16.07;;;24.50;99.90;;;;;;6213179;23;20187;-95
2021/07/19 08:19:33;;;;;;;20.47;17.07;;;24.60;99.90;;;;;;6209056;23;20406;-96
2021/07/19 08:22:11;;;;;;;19.33;17.07;;;24.60;99.90;;;;;;6213598;23;20413;-96
2021/07/19 08:24:37;;;;;;;20.40;17.17;;;24.60;99.90;;;;;;6212050;23;20418;-94
2021/07/19 08:27:03;;;;;;;21.80;17.47;;;24.60;99.90;;;;;;6216081;23;20424;-96
2021/07/19 08:29:31;;;;;;;22.50;18.27;;;24.70;99.90;;;;;;6210485;23;20886;-96
2021/07/19 08:32:01;;;;;;;19.93;17.83;;;24.70;99.90;;;;;;6212584;23;20413;-95
2021/07/19 08:34:27;;;;;;;20.90;18.10;;;24.80;99.90;;;;;;6206406;23;20441;-94
2021/07/19 08:36:55;;;;;;;20.00;17.87;;;24.80;99.90;;;;;;6208912;23;20505;-96
2021/07/19 08:39:22;;;;;;;19.83;17.43;;;24.90;99.90;;;;;;6225947;23;20263;-96
2021/07/19 08:41:58;;;;;;;22.87;18.13;;;24.90;99.90;;;;;;6234792;23;20438;-96
2021/07/19 08:44:24;;;;;;;19.67;17.03;;;24.90;99.90;;;;;;6205601;23;20460;-94
2021/07/19 08:46:54;;;;;;;19.60;17.40;;;25.00;99.90;;;;;;6210368;23;20485;-95
2021/07/19 08:49:22;;;;;;;20.50;17.80;;;25.00;99.90;;;;;;6183403;23;20422;-96
2021/07/19 08:51:49;;;;;;;19.80;17.80;;;25.00;99.90;;;;;;6188213;23;20408;-96
2021/07/19 08:54:15;;;;;;;19.87;17.80;;;25.10;99.90;;;;;;6181512;23;20434;-92
2021/07/19 08:56:41;;;;;;;20.77;17.27;;;25.10;99.90;;;;;;6180612;23;20419;-94
2021/07/19 08:59:08;;;;;;;19.23;17.30;;;25.20;99.90;;;;;;6184169;23;20375;-94
2021/07/19 09:01:39;;;;;;;20.60;18.50;;;25.20;99.90;;;;;;6185726;23;20540;-94
2021/07/19 09:04:05;;;;;;;19.77;17.77;;;25.30;99.90;;;;;;6177033;23;20388;-95
2021/07/19 09:06:33;;;;;;;18.70;16.70;;;25.30;99.90;;;;;;6179061;23;20415;-95
2021/07/19 09:09:29;;;;;;;21.83;18.30;;;25.30;99.90;;;;;;6191277;23;20408;-94
2021/07/19 09:12:17;;;;;;;20.20;18.20;;;25.30;99.90;;;;;;6189396;23;20483;-96
2021/07/19 09:14:47;;;;;;;21.63;18.90;;;25.30;99.90;;;;;;6192877;23;20900;-96
2021/07/19 09:17:32;;;;;;;23.10;18.10;;;25.30;99.90;;;;;;6185388;23;20507;-95
2021/07/19 09:19:59;;;;;;;20.60;16.53;;;25.30;99.90;;;;;;6185804;23;20538;-95
2021/07/19 09:22:39;;;;;;;20.57;18.37;;;25.30;99.90;;;;;;6200091;23;20444;-94
2021/07/19 09:28:10;;;;;;;22.07;19.70;;;25.30;99.90;;;;;;6182608;23;21122;-93
2021/07/19 09:30:39;;;;;;;23.50;18.17;;;25.30;99.90;;;;;;6194812;23;20405;-95
2021/07/19 09:33:07;;;;;;;20.17;18.00;;;25.30;99.90;;;;;;6180298;23;20411;-94
2021/07/19 09:35:35;;;;;;;21.50;19.20;;;25.40;99.90;;;;;;6182700;23;20416;-93
2021/07/19 09:38:04;;;;;;;20.03;18.00;;;25.40;99.90;;;;;;6183510;23;20466;-96
2021/07/19 09:40:33;;;;;;;19.57;17.67;;;25.40;99.90;;;;;;6186449;23;20533;-95
2021/07/19 09:43:11;;;;;;;22.37;19.10;;;25.50;99.90;;;;;;6181767;23;21061;-96
2021/07/19 09:45:37;;;;;;;20.93;18.77;;;25.60;99.90;;;;;;6191663;23;20418;-95
2021/07/19 09:48:08;;;;;;;21.20;18.50;;;25.60;99.90;;;;;;6182488;23;20523;-95
2021/07/19 09:50:53;;;;;;;19.20;17.27;;;25.60;99.90;;;;;;6191845;23;20194;-96
2021/07/19 09:54:07;;;;;;;19.47;17.37;;;25.60;99.90;;;;;;6189481;23;20411;-95
2021/07/19 09:56:33;;;;;;;21.43;19.13;;;25.60;99.90;;;;;;6197220;23;20491;-96
2021/07/19 09:59:05;;;;;;;18.80;16.77;;;25.70;99.90;;;;;;6191834;23;20407;-96
2021/07/19 10:01:38;;;;;;;17.57;15.87;;;25.70;99.90;;;;;;6190391;23;20459;-96
2021/07/19 10:04:20;;;;;;;20.70;16.67;;;25.70;99.90;;;;;;6171624;23;20396;-96
2021/07/19 10:09:55;;;;;;;19.80;17.53;;;25.70;99.90;;;;;;6165568;23;20976;-93
2021/07/19 10:12:21;;;;;;;20.30;18.07;;;25.70;99.90;;;;;;6195736;23;20455;-92
2021/07/19 10:14:48;;;;;;;18.30;16.40;;;25.80;99.90;;;;;;6181293;23;21014;-92
2021/07/19 10:17:15;;;;;;;19.03;17.10;;;25.80;99.90;;;;;;6179999;23;20185;-93
2021/07/19 10:19:41;;;;;;;18.50;16.60;;;25.80;99.90;;;;;;6181125;23;20432;-92
2021/07/19 10:22:12;;;;;;;20.10;15.97;;;25.80;99.90;;;;;;6182480;23;20893;-94
2021/07/19 10:24:45;;;;;;;17.87;16.07;;;25.90;99.90;;;;;;6180882;23;20667;-91
2021/07/19 10:27:18;;;;;;;18.23;16.37;;;25.90;99.90;;;;;;6179437;23;20775;-91
2021/07/19 10:29:45;;;;;;;18.40;15.43;;;26.00;99.90;;;;;;6183962;23;20906;-94
2021/07/19 10:32:12;;;;;;;17.80;16.00;;;26.00;99.90;;;;;;6178091;23;20518;-93
2021/07/19 10:34:42;;;;;;;16.77;14.83;;;26.10;99.90;;;;;;6177894;23;20463;-93
2021/07/19 10:37:15;;;;;;;17.90;16.10;;;26.10;99.90;;;;;;6177421;23;20451;-93
2021/07/19 10:39:47;;;;;;;19.57;15.93;;;26.10;99.90;;;;;;6180296;23;20810;-90
2021/07/19 10:42:13;;;;;;;18.23;16.23;;;26.20;99.90;;;;;;6184148;23;20466;-93
2021/07/19 10:44:40;;;;;;;20.97;17.17;;;26.20;99.90;;;;;;6188488;23;20878;-91
2021/07/19 10:47:26;;;;;;;20.10;17.90;;;26.30;99.90;;;;;;6201547;23;20483;-92
2021/07/19 10:49:56;;;;;;;18.50;16.60;;;26.30;99.90;;;;;;6193759;23;20415;-94
2021/07/19 10:52:31;;;;;;;19.40;16.50;;;26.30;99.90;;;;;;6197519;23;20431;-94
2021/07/19 10:55:03;;;;;;;19.43;16.10;;;26.20;99.90;;;;;;6200033;23;20383;-94
2021/07/19 10:57:57;;;;;;;;;;;;;;;;;;;;;
2021/07/19 11:00:25;;;;;;;16.77;15.10;;;26.20;99.90;;;;;;6210450;23;20435;-93
2021/07/19 11:03:02;;;;;;;18.13;16.27;;;26.20;99.90;;;;;;6191712;23;20401;-94
2021/07/19 11:05:34;;;;;;;19.17;16.83;;;26.20;99.90;;;;;;6192852;23;20413;-92
2021/07/19 11:08:00;;;;;;;17.50;15.70;;;26.20;99.90;;;;;;6190293;23;20420;-95
2021/07/19 11:10:26;;;;;;;18.07;16.20;;;26.20;99.90;;;;;;6162676;23;20392;-93
2021/07/19 11:12:54;;;;;;;17.63;15.83;;;26.20;99.90;;;;;;6183582;23;20892;-94
2021/07/19 11:15:36;;;;;;;18.20;16.43;;;26.30;99.90;;;;;;6183237;23;20162;-96
2021/07/19 11:18:26;;;;;;;17.97;16.17;;;26.30;99.90;;;;;;6181880;23;20465;-92
2021/07/19 11:21:00;;;;;;;16.73;15.20;;;26.30;99.90;;;;;;6184732;23;20507;-94
2021/07/19 11:23:40;;;;;;;18.90;15.93;;;26.30;99.90;;;;;;6179915;23;20436;-95
2021/07/19 11:26:18;;;;;;;18.77;15.13;;;26.30;99.90;;;;;;6180113;23;20416;-93
2021/07/19 11:28:44;;;;;;;18.67;16.60;;;26.30;99.90;;;;;;6186360;23;20399;-94
2021/07/19 11:31:31;;;;;;;17.83;15.43;;;26.30;99.90;;;;;;6182253;23;20471;-93
2021/07/19 11:34:05;;;;;;;16.80;15.20;;;26.30;99.90;;;;;;6184788;23;20471;-92
2021/07/19 11:36:43;;;;;;;17.50;15.00;;;26.30;99.90;;;;;;6184198;23;20418;-92
2021/07/19 11:39:19;;;;;;;18.20;14.73;;;26.40;99.90;;;;;;6185056;23;20443;-96
2021/07/19 11:41:46;;;;;;;17.57;15.20;;;26.40;99.90;;;;;;6184756;23;20478;-91
2021/07/19 11:44:17;;;;;;;17.23;15.40;;;26.40;99.90;;;;;;6189583;23;20376;-93
2021/07/19 11:46:44;;;;;;;16.00;14.03;;;26.40;99.90;;;;;;6186155;23;20427;-95
2021/07/19 11:49:13;;;;;;;15.50;13.90;;;26.40;99.90;;;;;;6189145;23;20379;-92
2021/07/19 11:51:43;;;;;;;15.53;13.93;;;26.50;99.90;;;;;;6193365;23;20447;-91
2021/07/19 11:54:14;;;;;;;15.70;13.97;;;26.50;99.90;;;;;;6181363;23;20691;-92
2021/07/19 11:56:46;;;;;;;15.90;13.60;;;26.50;99.90;;;;;;6182131;23;20426;-92
2021/07/19 11:59:12;;;;;;;15.80;14.20;;;26.60;99.90;;;;;;6185414;23;20487;-92
2021/07/19 12:01:38;;;;;;;15.10;13.50;;;26.60;99.90;;;;;;6179500;23;20463;-93
2021/07/19 12:04:05;;;;;;;16.07;14.60;;;26.70;99.90;;;;;;6176713;23;20376;-91
2021/07/19 12:06:35;;;;;;;15.83;14.07;;;26.70;99.90;;;;;;6179175;23;20186;-93
2021/07/19 12:09:07;;;;;;;16.03;14.53;;;26.80;99.90;;;;;;6182826;23;20728;-91
2021/07/19 12:11:34;;;;;;;17.63;14.40;;;26.80;99.90;;;;;;6183978;23;20507;-92
2021/07/19 12:14:02;;;;;;;16.20;14.53;;;26.90;99.90;;;;;;6185596;23;20924;-94
2021/07/19 12:16:39;;;;;;;20.73;14.20;;;26.90;99.90;;;;;;6187893;23;20487;-96
2021/07/19 12:19:06;;;;;;;16.00;14.43;;;27.00;99.90;;;;;;6186544;23;20445;-94
2021/07/19 12:22:12;;;;;;;17.17;15.50;;;27.10;99.90;;;;;;6190611;23;20447;-96
2021/07/19 12:24:39;;;;;;;18.63;14.67;;;27.20;99.90;;;;;;6187284;23;20396;-94
2021/07/19 12:27:05;;;;;;;17.73;14.03;;;27.30;99.90;;;;;;6185414;23;20403;-95
2021/07/19 12:29:34;;;;;;;16.30;14.50;;;27.30;99.90;;;;;;6186297;23;20387;-95
2021/07/19 12:32:11;;;;;;;16.33;14.53;;;27.30;99.90;;;;;;6192939;23;20404;-93
2021/07/19 12:34:41;;;;;;;15.47;13.93;;;27.30;99.90;;;;;;6189384;23;20385;-94
2021/07/19 12:37:11;;;;;;;18.90;16.97;;;27.40;99.90;;;;;;6196133;23;20435;-93
2021/07/19 12:39:57;;;;;;;16.03;14.33;;;27.40;99.90;;;;;;6185397;23;20874;-93
2021/07/19 12:42:32;;;;;;;16.40;14.77;;;27.40;99.90;;;;;;6187032;23;20425;-94
2021/07/19 12:44:59;;;;;;;16.33;14.70;;;27.60;99.90;;;;;;6185342;23;20407;-94
2021/07/19 12:47:27;;;;;;;17.93;15.60;;;27.60;99.90;;;;;;6185444;23;20428;-94
2021/07/19 12:50:24;;;;;;;20.33;15.70;;;27.60;99.90;;;;;;6197617;23;20384;-96
2021/07/19 12:52:51;;;;;;;16.30;14.60;;;27.70;99.90;;;;;;6134658;23;20524;-95
2021/07/19 12:55:29;;;;;;;16.73;15.00;;;27.60;99.90;;;;;;6191622;23;20394;-96
2021/07/19 12:57:58;;;;;;;18.27;16.17;;;27.70;99.90;;;;;;6200144;23;20934;-95
2021/07/19 13:00:31;;;;;;;18.57;16.70;;;27.70;99.90;;;;;;6196861;23;20459;-93
2021/07/19 13:03:03;;;;;;;18.00;16.30;;;27.70;99.90;;;;;;6195787;23;20924;-95
2021/07/19 13:05:49;;;;;;;17.80;15.43;;;27.60;99.90;;;;;;6197462;23;20379;-96
2021/07/19 13:08:15;;;;;;;15.23;13.63;;;27.60;99.90;;;;;;6185610;23;20423;-91
2021/07/19 13:10:44;;;;;;;17.50;15.17;;;27.50;99.90;;;;;;6194209;23;20404;-94
2021/07/19 13:13:10;;;;;;;15.13;13.63;;;27.50;99.90;;;;;;6192253;23;20412;-91
2021/07/19 13:15:36;;;;;;;13.83;12.43;;;27.50;99.90;;;;;;6187234;23;20475;-95
2021/07/19 13:18:07;;;;;;;13.87;12.13;;;27.60;99.90;;;;;;6192360;23;20175;-93
2021/07/19 13:20:35;;;;;;;13.30;12.00;;;27.60;99.90;;;;;;6185690;23;20277;-96
2021/07/19 13:23:42;;;;;;;13.23;12.03;;;27.70;99.90;;;;;;6185893;23;20441;-96
2021/07/19 13:26:15;;;;;;;14.70;13.20;;;27.70;99.90;;;;;;6120789;23;20423;-95
2021/07/19 13:28:42;;;;;;;13.83;12.40;;;27.80;99.90;;;;;;6164344;23;20394;-96
2021/07/19 13:31:15;;;;;;;14.50;12.97;;;27.80;99.90;;;;;;6193659;23;20413;-96
2021/07/19 13:33:50;;;;;;;13.30;12.00;;;27.80;99.90;;;;;;6189451;23;20397;-95
2021/07/19 13:36:33;;;;;;;12.60;11.40;;;27.80;99.90;;;;;;6188596;23;20412;-94
2021/07/19 13:38:59;;;;;;;12.63;11.23;;;27.80;99.90;;;;;;6192391;23;20401;-95
2021/07/19 13:41:26;;;;;;;13.10;11.90;;;27.90;99.90;;;;;;6188623;23;20446;-96
2021/07/19 13:44:15;;;;;;;12.70;11.50;;;27.90;99.90;;;;;;6184639;23;20386;-95
2021/07/19 13:46:51;;;;;;;13.20;11.80;;;27.90;99.90;;;;;;6182203;23;20426;-96
2021/07/19 13:49:22;;;;;;;13.37;11.87;;;27.90;99.90;;;;;;6185723;23;20378;-95
2021/07/19 13:51:48;;;;;;;12.93;11.70;;;27.90;99.90;;;;;;6183749;23;20416;-94
2021/07/19 13:54:18;;;;;;;10.87;9.77;;;27.90;99.90;;;;;;6185467;23;20742;-94
2021/07/19 13:56:43;;;;;;;11.30;9.90;;;27.90;99.90;;;;;;6181580;23;20417;-95
2021/07/19 13:59:15;;;;;;;10.63;9.43;;;27.80;99.90;;;;;;6188710;23;20779;-95
2021/07/19 14:01:41;;;;;;;11.53;10.30;;;27.80;99.90;;;;;;6181414;23;20227;-92
2021/07/19 14:04:07;;;;;;;10.50;9.50;;;27.80;99.90;;;;;;6188273;23;20928;-95
2021/07/19 14:06:35;;;;;;;10.63;9.57;;;27.70;99.90;;;;;;6178705;23;20196;-96
2021/07/19 14:09:03;;;;;;;10.80;9.87;;;27.70;99.90;;;;;;6181341;23;20417;-94
2021/07/19 14:11:30;;;;;;;11.50;10.40;;;27.70;99.90;;;;;;6182449;23;20424;-96
2021/07/19 14:13:58;;;;;;;10.83;9.93;;;27.70;99.90;;;;;;6182095;23;20870;-91
2021/07/19 14:16:25;;;;;;;11.60;10.50;;;27.60;99.90;;;;;;6182815;23;20753;-96
2021/07/19 14:18:51;;;;;;;12.17;11.00;;;27.60;99.90;;;;;;6180537;23;20462;-95
2021/07/19 14:21:17;;;;;;;11.40;10.30;;;27.60;99.90;;;;;;6181140;23;20467;-94
2021/07/19 14:23:43;;;;;;;10.70;9.70;;;27.50;99.90;;;;;;6180088;23;20158;-95
2021/07/19 14:26:09;;;;;;;10.80;9.70;;;27.60;99.90;;;;;;6180894;23;20181;-95
2021/07/19 14:28:35;;;;;;;13.70;10.10;;;27.60;99.90;;;;;;6183266;23;20384;-96
2021/07/19 14:31:02;;;;;;;11.10;10.00;;;27.60;99.90;;;;;;6184188;23;20387;-95
2021/07/19 14:33:28;;;;;;;11.73;10.53;;;27.70;99.90;;;;;;6184219;23;20475;-96
2021/07/19 14:35:53;;;;;;;10.10;9.10;;;27.70;99.90;;;;;;6183882;23;20420;-95
2021/07/19 14:38:21;;;;;;;10.87;9.77;;;27.70;99.90;;;;;;6186663;23;20207;-94
2021/07/19 14:40:47;;;;;;;16.70;11.07;;;27.70;99.90;;;;;;6185413;23;20252;-95
2021/07/19 14:43:13;;;;;;;12.13;10.93;;;27.70;99.90;;;;;;6185133;23;20405;-96
2021/07/19 14:45:39;;;;;;;11.17;10.17;;;27.70;99.90;;;;;;6189728;23;20823;-94
2021/07/19 14:48:06;;;;;;;11.77;10.67;;;27.80;99.90;;;;;;6186271;23;20443;-95
2021/07/19 14:50:32;;;;;;;12.30;10.57;;;27.80;99.90;;;;;;6184451;23;20159;-96
2021/07/19 14:52:58;;;;;;;11.87;10.47;;;27.80;99.90;;;;;;6184282;23;20424;-93
2021/07/19 14:55:23;;;;;;;12.87;10.83;;;27.80;99.90;;;;;;6184254;23;20474;-94
2021/07/19 14:57:49;;;;;;;11.10;9.90;;;27.80;99.90;;;;;;6184823;23;20437;-95
2021/07/19 15:00:18;;;;;;;12.30;11.03;;;27.70;99.90;;;;;;6185530;23;20437;-95
2021/07/19 15:02:44;;;;;;;12.80;11.60;;;27.80;99.90;;;;;;6183742;23;20186;-93
2021/07/19 15:05:11;;;;;;;12.50;11.20;;;27.70;99.90;;;;;;6183474;23;20384;-96
2021/07/19 15:07:38;;;;;;;12.73;11.43;;;27.70;99.90;;;;;;6187673;23;20767;-94
2021/07/19 15:10:06;;;;;;;13.80;12.30;;;27.70;99.90;;;;;;6194981;23;20376;-92
2021/07/19 15:12:32;;;;;;;13.57;12.33;;;27.70;99.90;;;;;;6184576;23;20421;-96
2021/07/19 15:14:58;;;;;;;13.67;12.37;;;27.70;99.90;;;;;;6182451;23;20468;-96
2021/07/19 15:17:25;;;;;;;14.40;12.90;;;27.70;99.90;;;;;;6185605;23;20435;-94
2021/07/19 15:19:50;;;;;;;16.30;13.77;;;27.70;99.90;;;;;;6184854;23;20187;-96
2021/07/19 15:22:16;;;;;;;13.97;12.57;;;27.70;99.90;;;;;;6185026;23;21034;-92
2021/07/19 15:24:42;;;;;;;13.53;11.53;;;27.70;99.90;;;;;;6185876;23;20520;-94
2021/07/19 15:27:08;;;;;;;13.17;11.47;;;27.70;99.90;;;;;;6185272;23;20175;-94
2021/07/19 15:29:34;;;;;;;13.23;11.93;;;27.60;99.90;;;;;;6188800;23;20417;-92
2021/07/19 15:31:59;;;;;;;12.70;11.17;;;27.60;99.90;;;;;;6183269;23;20179;-91
2021/07/19 15:34:25;;;;;;;13.63;11.90;;;27.60;99.90;;;;;;6185669;23;20625;-92
2021/07/19 15:36:51;;;;;;;13.20;12.03;;;27.60;99.90;;;;;;6184752;23;20203;-93
2021/07/19 15:39:17;;;;;;;11.33;10.33;;;27.60;99.90;;;;;;6186067;23;20154;-90
2021/07/19 15:41:43;;;;;;;10.80;9.80;;;27.50;99.90;;;;;;6189112;23;20455;-92
2021/07/19 15:44:08;;;;;;;11.73;10.20;;;27.50;99.90;;;;;;6191969;23;20226;-88
2021/07/19 15:46:34;;;;;;;11.30;10.03;;;27.50;99.90;;;;;;6204194;23;20420;-93
2021/07/19 15:49:01;;;;;;;10.10;9.20;;;27.40;99.90;;;;;;6198658;23;20154;-90
2021/07/19 15:51:26;;;;;;;10.27;9.37;;;27.40;99.90;;;;;;6188342;23;20583;-90
2021/07/19 15:53:52;;;;;;;10.80;9.67;;;27.40;99.90;;;;;;6187440;23;20384;-92
2021/07/19 15:56:18;;;;;;;10.00;9.10;;;27.40;99.90;;;;;;6185291;23;20210;-94
2021/07/19 15:58:44;;;;;;;10.40;9.33;;;27.40;99.90;;;;;;6184979;23;20708;-90
2021/07/19 16:01:10;;;;;;;9.63;8.80;;;27.30;99.90;;;;;;6185569;23;20201;-94
2021/07/19 16:03:35;;;;;;;10.27;9.20;;;27.30;99.90;;;;;;6185718;23;20154;-92
2021/07/19 16:06:02;;;;;;;8.73;7.83;;;27.30;99.90;;;;;;6186966;23;20157;-89
2021/07/19 16:08:28;;;;;;;9.00;8.20;;;27.30;99.90;;;;;;6185809;23;20237;-90
2021/07/19 16:10:53;;;;;;;8.50;7.70;;;27.30;99.90;;;;;;6187140;23;20870;-93
2021/07/19 16:13:19;;;;;;;9.00;8.10;;;27.30;99.90;;;;;;6189238;23;20396;-92
2021/07/19 16:15:45;;;;;;;8.80;7.87;;;27.20;99.90;;;;;;6203823;23;20154;-87
2021/07/19 16:18:12;;;;;;;9.23;8.33;;;27.20;99.90;;;;;;6192982;23;20170;-91
2021/07/19 16:20:38;;;;;;;9.70;7.70;;;27.20;99.90;;;;;;6193859;23;20213;-90
2021/07/19 16:23:04;;;;;;;8.60;7.77;;;27.20;99.90;;;;;;6189203;23;20419;-90
2021/07/19 16:25:30;;;;;;;8.83;7.07;;;27.10;99.90;;;;;;6190305;23;20158;-94
2021/07/19 16:27:56;;;;;;;10.40;8.43;;;27.10;99.90;;;;;;6192995;23;20420;-92
2021/07/19 16:30:22;;;;;;;9.13;8.27;;;27.10;99.90;;;;;;6193134;23;20158;-92
2021/07/19 16:32:48;;;;;;;8.40;7.60;;;27.10;99.90;;;;;;6197082;23;20492;-93
2021/07/19 16:35:14;;;;;;;7.90;7.20;;;27.00;99.90;;;;;;6199595;23;20408;-89
2021/07/19 16:37:40;;;;;;;8.17;7.40;;;27.00;99.90;;;;;;6191616;23;20470;-91
2021/07/19 16:40:09;;;;;;;8.33;6.77;;;27.00;99.90;;;;;;6194824;23;20186;-93
2021/07/19 16:42:36;;;;;;;11.10;7.57;;;26.90;99.90;;;;;;6197888;23;20423;-92
2021/07/19 16:45:02;;;;;;;8.77;7.97;;;26.90;99.90;;;;;;6191903;23;20416;-93
2021/07/19 16:47:28;;;;;;;10.03;7.90;;;26.90;99.90;;;;;;6193708;23;20434;-94
2021/07/19 16:49:54;;;;;;;9.00;8.20;;;26.90;99.90;;;;;;6192357;23;20396;-92
2021/07/19 16:52:21;;;;;;;9.07;8.07;;;26.80;99.90;;;;;;6192334;23;20495;-96
2021/07/19 16:54:46;;;;;;;9.53;7.90;;;26.80;99.90;;;;;;6192283;23;20444;-92
2021/07/19 16:57:12;;;;;;;8.50;7.70;;;26.80;99.90;;;;;;6192099;23;20409;-95
2021/07/19 16:59:38;;;;;;;8.70;7.90;;;26.80;99.90;;;;;;6189902;23;20161;-96
2021/07/19 17:02:04;;;;;;;9.20;7.90;;;26.80;99.90;;;;;;6191252;23;20412;-95
2021/07/19 17:04:30;;;;;;;8.63;7.83;;;26.80;99.90;;;;;;6192859;23;20154;-96
2021/07/19 17:06:56;;;;;;;9.93;8.30;;;26.80;99.90;;;;;;6190186;23;20222;-95
2021/07/19 17:09:22;;;;;;;9.03;7.73;;;26.70;99.90;;;;;;6190634;23;20401;-96
2021/07/19 17:11:48;;;;;;;9.43;8.53;;;26.70;99.90;;;;;;6190346;23;20438;-95
2021/07/19 17:14:17;;;;;;;10.23;9.23;;;26.70;99.90;;;;;;6189940;23;20194;-95
2021/07/19 17:16:43;;;;;;;9.87;8.73;;;26.70;99.90;;;;;;6191684;23;20488;-95
2021/07/19 17:19:09;;;;;;;9.83;8.83;;;26.70;99.90;;;;;;6191038;23;20409;-94
2021/07/19 17:21:39;;;;;;;10.47;9.43;;;26.70;99.90;;;;;;6192772;23;20450;-93
2021/07/19 17:24:05;;;;;;;10.60;8.77;;;26.70;99.90;;;;;;6195371;23;20399;-92
2021/07/19 17:26:31;;;;;;;9.10;8.20;;;26.70;99.90;;;;;;6199009;23;20400;-95
2021/07/19 17:28:56;;;;;;;9.20;8.40;;;26.70;99.90;;;;;;6193585;23;20177;-95
2021/07/19 17:31:23;;;;;;;8.43;7.63;;;26.60;99.90;;;;;;6202687;23;20178;-92
2021/07/19 17:33:48;;;;;;;9.43;8.63;;;26.60;99.90;;;;;;6200321;23;20252;-92
2021/07/19 17:36:14;;;;;;;10.43;9.53;;;26.60;99.90;;;;;;6199939;23;20483;-94
2021/07/19 17:38:40;;;;;;;10.17;8.40;;;26.60;99.90;;;;;;6196740;23;20198;-92
2021/07/19 17:41:06;;;;;;;9.00;8.10;;;26.60;99.90;;;;;;6203186;23;20516;-95
2021/07/19 17:43:33;;;;;;;10.10;9.10;;;26.60;99.90;;;;;;6187072;23;20201;-95
2021/07/19 17:45:59;;;;;;;9.80;8.20;;;26.60;99.90;;;;;;6186647;23;20159;-96
2021/07/19 17:48:26;;;;;;;8.80;8.00;;;26.50;99.90;;;;;;6186314;23;20404;-95
2021/07/19 17:50:52;;;;;;;8.80;8.00;;;26.50;99.90;;;;;;6186042;23;20193;-92
2021/07/19 17:53:20;;;;;;;9.43;8.53;;;26.50;99.90;;;;;;6187890;23;20403;-92
2021/07/19 17:55:45;;;;;;;9.33;8.47;;;26.40;99.90;;;;;;6185979;23;20420;-93
2021/07/19 17:58:11;;;;;;;9.83;8.83;;;26.40;99.90;;;;;;6186937;23;20387;-95
2021/07/19 18:00:37;;;;;;;8.90;8.00;;;26.40;99.90;;;;;;6186226;23;20285;-95
2021/07/19 18:03:03;;;;;;;9.20;8.30;;;26.40;99.90;;;;;;6185528;23;20549;-92
2021/07/19 18:05:30;;;;;;;9.33;8.37;;;26.40;99.90;;;;;;6185555;23;20159;-91
2021/07/19 18:07:57;;;;;;;9.97;9.00;;;26.30;99.90;;;;;;6185717;23;20497;-96
2021/07/19 18:10:28;;;;;;;8.80;7.90;;;26.40;99.90;;;;;;6185700;23;20385;-94
2021/07/19 18:12:56;;;;;;;8.93;7.83;;;26.30;99.90;;;;;;6185354;23;20450;-94
2021/07/19 18:15:22;;;;;;;9.53;8.60;;;26.30;99.90;;;;;;6186297;23;20466;-92
2021/07/19 18:17:48;;;;;;;9.43;8.47;;;26.30;99.90;;;;;;6194183;23;20433;-94
2021/07/19 18:20:15;;;;;;;9.50;8.07;;;26.30;99.90;;;;;;6184623;23;20447;-92
2021/07/19 18:22:48;;;;;;;10.57;9.13;;;26.30;99.90;;;;;;6184402;23;20758;-93
2021/07/19 18:30:47;;;;;;;12.50;9.23;;;26.20;99.90;;;;;;6187629;23;20916;-96
2021/07/19 18:33:15;;;;;;;9.53;8.63;;;26.10;99.90;;;;;;6186330;23;20388;-94
2021/07/19 18:35:43;;;;;;;10.93;9.93;;;26.10;99.90;;;;;;6186177;23;20854;-92
2021/07/19 18:38:10;;;;;;;11.50;10.30;;;26.10;99.90;;;;;;6187745;23;20434;-92
2021/07/19 18:40:37;;;;;;;11.10;9.90;;;26.00;99.90;;;;;;6186007;23;20440;-91
2021/07/19 18:43:04;;;;;;;10.07;9.07;;;26.00;99.90;;;;;;6187421;23;20399;-91
2021/07/19 18:45:30;;;;;;;9.53;8.30;;;26.00;99.90;;;;;;6186082;23;20384;-92
2021/07/19 18:47:56;;;;;;;12.80;10.20;;;25.90;99.90;;;;;;6185779;23;20412;-92
2021/07/19 18:50:22;;;;;;;11.10;9.10;;;25.90;99.90;;;;;;6186126;23;20384;-94
2021/07/19 18:52:47;;;;;;;11.10;10.00;;;25.80;99.90;;;;;;6186108;23;20225;-92
2021/07/19 18:55:15;;;;;;;10.70;9.57;;;25.80;99.90;;;;;;6187967;23;20408;-96
2021/07/19 18:57:41;;;;;;;9.47;8.57;;;25.80;99.90;;;;;;6186333;23;20185;-93
2021/07/19 19:00:10;;;;;;;9.90;8.90;;;25.70;99.90;;;;;;6186235;23;20514;-95
2021/07/19 19:02:36;;;;;;;9.30;8.30;;;25.70;99.90;;;;;;6186050;23;20462;-96
2021/07/19 19:05:08;;;;;;;9.90;9.00;;;25.60;99.90;;;;;;6186254;23;20435;-91
2021/07/19 19:07:34;;;;;;;11.03;9.00;;;25.60;99.90;;;;;;6186057;23;20447;-94
2021/07/19 19:10:00;;;;;;;11.83;8.37;;;25.60;99.90;;;;;;6186362;23;20400;-92
2021/07/19 19:12:28;;;;;;;9.80;8.60;;;25.60;99.90;;;;;;6187366;23;20399;-93
2021/07/19 19:14:54;;;;;;;11.50;9.43;;;25.60;99.90;;;;;;6189935;23;20393;-92
2021/07/19 19:17:20;;;;;;;9.43;8.60;;;25.50;99.90;;;;;;6193304;23;20481;-93
2021/07/19 19:19:47;;;;;;;9.93;8.70;;;25.50;99.90;;;;;;6188505;23;20423;-92
2021/07/19 19:22:13;;;;;;;10.50;9.43;;;25.50;99.90;;;;;;6187289;23;20225;-96
2021/07/19 19:24:40;;;;;;;9.40;8.50;;;25.50;99.90;;;;;;6196072;23;20399;-93
2021/07/19 19:27:06;;;;;;;9.97;9.00;;;25.50;99.90;;;;;;6186136;23;20933;-93
2021/07/19 19:29:32;;;;;;;9.23;8.33;;;25.50;99.90;;;;;;6186131;23;20407;-93